createdAt,value
2022-07-26T00:01:20.723Z,100902.88
2022-07-26T00:03:49.339Z,100898.00
2022-07-26T00:06:16.121Z,100903.63
2022-07-26T00:08:45.704Z,100899.41
2022-07-26T00:11:12.557Z,100899.09
2022-07-26T00:13:39.740Z,100898.63
2022-07-26T00:16:06.607Z,100899.88
2022-07-26T00:18:33.548Z,100890.94
2022-07-26T00:21:00.084Z,100899.03
2022-07-26T00:23:27.618Z,100890.13
2022-07-26T00:25:54.132Z,100897.31
2022-07-26T00:28:20.636Z,100903.69
2022-07-26T00:30:47.231Z,100897.56
2022-07-26T00:33:13.772Z,100905.09
2022-07-26T00:35:40.383Z,100891.47
2022-07-26T00:38:06.968Z,100894.56
2022-07-26T00:40:34.385Z,100887.84
2022-07-26T00:43:00.915Z,100889.19
2022-07-26T00:45:27.406Z,100892.63
2022-07-26T00:47:53.981Z,100894.16
2022-07-26T00:50:20.504Z,100887.91
2022-07-26T00:52:49.356Z,100887.28
2022-07-26T00:55:16.977Z,100891.91
2022-07-26T00:57:44.772Z,100893.63
2022-07-26T01:00:15.131Z,100891.91
2022-07-26T01:02:41.899Z,100888.31
2022-07-26T01:05:08.908Z,100890.31
2022-07-26T01:07:37.216Z,100886.41
2022-07-26T01:10:06.889Z,100890.13
2022-07-26T01:12:33.436Z,100894.91
2022-07-26T01:14:59.940Z,100888.84
2022-07-26T01:17:26.461Z,100888.16
2022-07-26T01:19:52.944Z,100889.69
2022-07-26T01:22:19.492Z,100889.75
2022-07-26T01:24:45.984Z,100893.28
2022-07-26T01:27:12.463Z,100889.41
2022-07-26T01:29:39.096Z,100891.59
2022-07-26T01:32:06.142Z,100889.09
2022-07-26T01:34:32.973Z,100890.53
2022-07-26T01:36:59.665Z,100890.97
2022-07-26T01:39:26.585Z,100885.50
2022-07-26T01:41:54.290Z,100884.16
2022-07-26T01:44:20.824Z,100892.94
2022-07-26T01:46:47.339Z,100895.56
2022-07-26T01:49:14.109Z,100887.63
2022-07-26T01:51:40.884Z,100886.34
2022-07-26T01:54:07.833Z,100894.81
2022-07-26T01:56:35.012Z,100885.75
2022-07-26T01:59:01.772Z,100890.25
2022-07-26T02:01:38.236Z,100894.31
2022-07-26T02:04:29.650Z,100886.66
2022-07-26T02:06:56.179Z,100895.69
2022-07-26T02:09:22.681Z,100889.28
2022-07-26T02:11:49.261Z,100894.75
2022-07-26T02:14:25.759Z,100904.69
2022-07-26T02:16:59.676Z,100902.22
2022-07-26T02:19:28.803Z,100903.25
2022-07-26T02:21:55.867Z,100918.97
2022-07-26T02:24:22.585Z,100898.22
2022-07-26T02:26:49.154Z,100899.13
2022-07-26T02:29:15.772Z,100905.81
2022-07-26T02:31:42.323Z,100900.53
2022-07-26T02:34:15.169Z,100893.66
2022-07-26T02:36:41.749Z,100898.47
2022-07-26T02:39:08.330Z,100903.19
2022-07-26T02:41:34.874Z,100899.47
2022-07-26T02:44:01.582Z,100896.59
2022-07-26T02:46:28.139Z,100899.75
2022-07-26T02:48:54.812Z,100901.31
2022-07-26T02:51:21.422Z,100904.25
2022-07-26T02:53:47.965Z,100902.88
2022-07-26T02:56:14.511Z,100908.81
2022-07-26T02:58:41.093Z,100913.91
2022-07-26T03:01:08.057Z,100919.16
2022-07-26T03:03:36.662Z,100912.41
2022-07-26T03:06:05.017Z,100926.81
2022-07-26T03:08:31.669Z,100913.41
2022-07-26T03:10:58.236Z,100914.06
2022-07-26T03:13:24.775Z,100922.16
2022-07-26T03:15:51.347Z,100924.31
2022-07-26T03:18:17.916Z,100920.88
2022-07-26T03:20:44.644Z,100922.22
2022-07-26T03:23:11.187Z,100922.75
2022-07-26T03:25:38.416Z,100926.47
2022-07-26T03:28:05.243Z,100923.44
2022-07-26T03:30:31.913Z,100924.91
2022-07-26T03:32:58.738Z,100923.56
2022-07-26T03:35:25.825Z,100935.31
2022-07-26T03:37:52.513Z,100927.53
2022-07-26T03:40:19.643Z,100938.47
2022-07-26T03:42:47.373Z,100940.94
2022-07-26T03:45:15.688Z,100947.59
2022-07-26T03:47:43.267Z,100946.59
2022-07-26T03:50:11.117Z,100951.84
2022-07-26T03:52:37.958Z,100957.59
2022-07-26T03:55:24.912Z,100961.91
2022-07-26T03:57:51.474Z,100961.38
2022-07-26T04:00:18.243Z,100959.16
2022-07-26T04:02:44.850Z,100969.84
2022-07-26T04:05:11.428Z,100973.84
2022-07-26T04:07:52.663Z,100964.78
2022-07-26T04:10:20.423Z,100973.78
2022-07-26T04:12:46.905Z,100973.72
2022-07-26T04:15:13.475Z,100982.16
2022-07-26T04:17:41.114Z,100981.28
2022-07-26T04:20:10.453Z,100985.16
2022-07-26T04:22:38.645Z,100985.41
2022-07-26T04:25:06.758Z,100986.06
2022-07-26T04:27:33.633Z,100987.59
2022-07-26T04:30:00.522Z,100992.84
2022-07-26T04:32:27.132Z,100995.22
2022-07-26T04:34:53.743Z,100990.16
2022-07-26T04:37:20.344Z,100994.81
2022-07-26T04:39:50.427Z,100991.66
2022-07-26T04:42:19.584Z,100983.63
2022-07-26T04:44:46.111Z,100988.19
2022-07-26T04:47:12.592Z,100987.63
2022-07-26T04:49:40.624Z,100982.72
2022-07-26T04:52:07.171Z,100984.56
2022-07-26T04:54:33.687Z,100990.03
2022-07-26T04:57:00.194Z,100990.50
2022-07-26T04:59:26.703Z,100996.00
2022-07-26T05:01:53.225Z,100996.97
2022-07-26T05:04:19.718Z,101001.03
2022-07-26T05:06:46.300Z,101004.50
2022-07-26T05:09:12.789Z,101009.66
2022-07-26T05:11:39.319Z,101007.44
2022-07-26T05:14:06.094Z,101007.22
2022-07-26T05:16:33.147Z,101013.28
2022-07-26T05:19:00.125Z,101012.59
2022-07-26T05:21:28.041Z,101010.16
2022-07-26T05:23:55.541Z,101006.22
2022-07-26T05:26:22.125Z,101006.88
2022-07-26T05:28:48.691Z,101009.00
2022-07-26T05:31:15.269Z,101011.06
2022-07-26T05:33:42.114Z,101011.38
2022-07-26T05:36:09.434Z,101005.22
2022-07-26T05:38:35.970Z,101004.78
2022-07-26T05:41:02.675Z,100999.41
2022-07-26T05:43:41.394Z,100999.53
2022-07-26T05:46:09.801Z,101001.13
2022-07-26T05:48:36.559Z,101006.28
2022-07-26T05:51:03.215Z,101015.13
2022-07-26T05:53:29.798Z,101015.81
2022-07-26T05:55:56.318Z,101002.38
2022-07-26T05:58:22.829Z,101001.34
2022-07-26T06:00:49.345Z,101006.94
2022-07-26T06:03:25.700Z,101017.50
2022-07-26T06:05:55.292Z,101006.63
2022-07-26T06:08:22.457Z,101015.16
2022-07-26T06:10:49.929Z,101017.19
2022-07-26T06:13:17.094Z,101013.00
2022-07-26T06:15:45.206Z,101022.66
2022-07-26T06:18:11.889Z,101028.72
2022-07-26T06:20:40.343Z,101027.38
2022-07-26T06:23:07.054Z,101021.56
2022-07-26T06:25:34.419Z,101027.75
2022-07-26T06:28:05.588Z,101032.78
2022-07-26T06:30:32.147Z,101024.81
2022-07-26T06:32:58.667Z,101032.00
2022-07-26T06:35:25.437Z,101030.88
2022-07-26T06:37:51.942Z,101037.16
2022-07-26T06:40:18.436Z,101040.19
2022-07-26T06:42:44.999Z,101034.69
2022-07-26T06:45:11.525Z,101040.13
2022-07-26T06:47:38.030Z,101038.34
2022-07-26T06:50:05.426Z,101038.78
2022-07-26T06:52:32.892Z,101046.56
2022-07-26T06:55:00.346Z,101046.19
2022-07-26T06:57:27.186Z,101054.97
2022-07-26T06:59:54.015Z,101044.28
2022-07-26T07:02:21.014Z,101048.59
2022-07-26T07:04:47.619Z,101039.19
2022-07-26T07:07:14.222Z,101050.31
2022-07-26T07:09:41.257Z,101056.00
2022-07-26T07:12:09.790Z,101060.72
2022-07-26T07:14:38.117Z,101066.81
2022-07-26T07:17:11.184Z,101056.19
2022-07-26T07:19:40.733Z,101063.56
2022-07-26T07:22:11.605Z,101059.88
2022-07-26T07:24:38.866Z,101066.53
2022-07-26T07:27:05.951Z,101073.09
2022-07-26T07:29:33.439Z,101072.38
2022-07-26T07:32:00.428Z,101063.72
2022-07-26T07:34:30.137Z,101075.22
2022-07-26T07:36:57.639Z,101071.41
2022-07-26T07:39:24.281Z,101061.75
2022-07-26T07:42:01.233Z,101072.88
2022-07-26T07:44:27.829Z,101075.84
2022-07-26T07:46:54.446Z,101077.75
2022-07-26T07:49:22.200Z,101084.94
2022-07-26T07:51:48.859Z,101081.84
2022-07-26T07:54:16.107Z,101084.25
2022-07-26T07:56:43.265Z,101083.25
2022-07-26T07:59:10.681Z,101076.78
2022-07-26T08:01:40.052Z,101092.19
2022-07-26T08:04:08.225Z,101091.38
2022-07-26T08:06:34.823Z,101088.47
2022-07-26T08:09:01.392Z,101093.00
2022-07-26T08:11:30.438Z,101088.66
2022-07-26T08:13:57.063Z,101079.63
2022-07-26T08:16:24.640Z,101084.00
2022-07-26T08:18:57.088Z,101081.66
2022-07-26T08:21:28.067Z,101087.00
2022-07-26T08:23:56.872Z,101097.03
2022-07-26T08:26:23.794Z,101076.19
2022-07-26T08:28:59.921Z,101088.41
2022-07-26T08:31:28.217Z,101077.94
2022-07-26T08:33:54.946Z,101085.50
2022-07-26T08:36:21.525Z,101090.34
2022-07-26T08:38:48.611Z,101095.31
2022-07-26T08:41:17.105Z,101091.28
2022-07-26T08:43:53.138Z,101083.75
2022-07-26T08:46:25.760Z,101088.00
2022-07-26T08:48:53.754Z,101084.53
2022-07-26T08:51:22.909Z,101095.19
2022-07-26T08:53:53.426Z,101086.88
2022-07-26T08:56:19.981Z,101094.03
2022-07-26T08:58:46.514Z,101096.28
2022-07-26T09:01:13.506Z,101099.56
2022-07-26T09:03:44.332Z,101091.06
2022-07-26T09:06:21.920Z,101095.31
2022-07-26T09:08:53.046Z,101098.59
2022-07-26T09:11:33.132Z,101102.13
2022-07-26T09:14:05.113Z,101113.75
2022-07-26T09:16:36.033Z,101111.47
2022-07-26T09:19:18.988Z,101105.06
2022-07-26T09:21:46.662Z,101112.75
2022-07-26T09:24:29.127Z,101110.53
2022-07-26T09:27:00.601Z,101116.00
2022-07-26T09:29:29.027Z,101109.03
2022-07-26T09:32:16.867Z,101107.84
2022-07-26T09:34:52.657Z,101114.81
2022-07-26T09:37:37.514Z,101116.50
2022-07-26T09:40:08.267Z,101111.91
2022-07-26T09:42:35.197Z,101109.16
2022-07-26T09:45:02.483Z,101115.66
2022-07-26T09:47:36.995Z,101110.84
2022-07-26T09:50:15.854Z,101118.69
2022-07-26T09:53:08.963Z,101119.31
2022-07-26T09:55:57.178Z,101121.41
2022-07-26T09:58:24.967Z,101120.72
2022-07-26T10:00:51.788Z,101121.38
2022-07-26T10:03:18.449Z,101125.53
2022-07-26T10:05:45.062Z,101134.31
2022-07-26T10:08:12.704Z,101145.63
2022-07-26T10:10:46.486Z,101159.22
2022-07-26T10:13:13.877Z,101171.25
2022-07-26T10:15:46.866Z,101179.47
2022-07-26T10:18:38.506Z,101188.06
2022-07-26T10:21:30.506Z,101192.81
2022-07-26T10:24:01.873Z,101200.34
2022-07-26T10:26:31.347Z,101200.97
2022-07-26T10:29:19.133Z,101207.25
2022-07-26T10:32:08.031Z,101206.28
2022-07-26T10:34:37.498Z,101207.84
2022-07-26T10:37:07.625Z,101202.97
2022-07-26T10:39:34.691Z,101210.91
2022-07-26T10:42:09.979Z,101208.72
2022-07-26T10:44:39.552Z,101214.97
2022-07-26T10:47:09.079Z,101209.94
2022-07-26T10:49:38.471Z,101215.59
2022-07-26T10:52:20.232Z,101223.72
2022-07-26T10:55:04.846Z,101226.53
2022-07-26T10:57:34.314Z,101230.00
2022-07-26T11:00:02.098Z,101233.44
2022-07-26T11:02:32.504Z,101236.72
2022-07-26T11:05:03.075Z,101232.78
2022-07-26T11:07:30.065Z,101237.63
2022-07-26T11:10:00.794Z,101232.41
2022-07-26T11:12:27.581Z,101228.84
2022-07-26T11:14:54.383Z,101227.47
2022-07-26T11:17:29.354Z,101244.91
2022-07-26T11:19:56.945Z,101244.16
2022-07-26T11:22:31.968Z,101255.16
2022-07-26T11:24:58.554Z,101260.25
2022-07-26T11:27:25.092Z,101262.13
2022-07-26T11:29:51.633Z,101272.59
2022-07-26T11:32:25.116Z,101276.22
2022-07-26T11:35:02.919Z,101274.91
2022-07-26T11:37:29.915Z,101269.59
2022-07-26T11:39:56.844Z,101269.34
2022-07-26T11:42:23.428Z,101269.19
2022-07-26T11:44:50.545Z,101266.19
2022-07-26T11:47:25.564Z,101271.53
2022-07-26T11:52:40.225Z,101265.53
2022-07-26T11:55:07.494Z,101274.16
2022-07-26T11:57:34.040Z,101264.47
2022-07-26T12:00:01.527Z,101263.78
2022-07-26T12:02:30.271Z,101267.41
2022-07-26T12:05:19.248Z,101269.47
2022-07-26T12:08:03.896Z,101270.25
2022-07-26T12:10:30.627Z,101269.53
2022-07-26T12:13:15.420Z,101279.91
2022-07-26T12:15:50.628Z,101267.91
2022-07-26T12:18:35.276Z,101264.75
2022-07-26T12:21:07.436Z,101270.38
2022-07-26T12:23:45.820Z,101264.22
2022-07-26T12:26:30.662Z,101260.59
2022-07-26T12:28:59.712Z,101268.19
2022-07-26T12:31:31.056Z,101270.78
2022-07-26T12:33:58.897Z,101275.03
2022-07-26T12:36:27.713Z,101272.38
2022-07-26T12:38:56.687Z,101279.84
2022-07-26T12:41:33.314Z,101274.72
2022-07-26T12:43:59.988Z,101270.00
2022-07-26T12:46:26.734Z,101278.59
2022-07-26T12:48:56.807Z,101284.78
2022-07-26T12:51:26.722Z,101279.78
2022-07-26T12:53:53.260Z,101288.84
2022-07-26T12:56:19.734Z,101279.91
2022-07-26T12:58:46.183Z,101286.94
2022-07-26T13:01:12.972Z,101288.50
2022-07-26T13:03:39.600Z,101276.69
2022-07-26T13:06:06.726Z,101285.50
2022-07-26T13:08:33.281Z,101282.25
2022-07-26T13:11:00.268Z,101273.56
2022-07-26T13:13:26.924Z,101271.69
2022-07-26T13:15:53.427Z,101272.28
2022-07-26T13:18:19.961Z,101264.63
2022-07-26T13:20:46.466Z,101271.75
2022-07-26T13:23:15.812Z,101276.50
2022-07-26T13:25:48.601Z,101275.16
2022-07-26T13:28:17.362Z,101265.50
2022-07-26T13:30:45.080Z,101254.41
2022-07-26T13:33:12.404Z,101269.38
2022-07-26T13:35:41.331Z,101259.94
2022-07-26T13:38:09.014Z,101262.66
2022-07-26T13:40:36.118Z,101260.97
2022-07-26T13:43:02.947Z,101262.66
2022-07-26T13:45:29.847Z,101254.69
2022-07-26T13:47:59.080Z,101250.38
2022-07-26T13:50:27.332Z,101247.25
2022-07-26T13:52:56.210Z,101260.34
2022-07-26T13:55:23.227Z,101254.88
2022-07-26T13:57:55.978Z,101265.44
2022-07-26T14:00:24.548Z,101265.69
2022-07-26T14:02:51.169Z,101267.88
2022-07-26T14:05:18.743Z,101269.56
2022-07-26T14:07:45.553Z,101274.13
2022-07-26T14:10:12.096Z,101270.44
2022-07-26T14:12:38.735Z,101278.50
2022-07-26T14:15:12.010Z,101281.41
2022-07-26T14:17:40.648Z,101287.94
2022-07-26T14:20:07.872Z,101274.56
2022-07-26T14:22:34.353Z,101277.47
2022-07-26T14:25:00.921Z,101280.97
2022-07-26T14:27:27.618Z,101286.91
2022-07-26T14:29:54.167Z,101286.38
2022-07-26T14:32:22.142Z,101287.63
2022-07-26T14:34:49.554Z,101289.25
2022-07-26T14:37:44.158Z,101296.22
2022-07-26T14:40:04.851Z,101284.88
2022-07-26T14:42:31.382Z,101276.97
2022-07-26T14:44:57.930Z,101272.88
2022-07-26T14:47:24.499Z,101286.81
2022-07-26T14:49:51.062Z,101286.38
2022-07-26T14:52:17.656Z,101286.69
2022-07-26T14:54:44.230Z,101286.44
2022-07-26T14:57:10.740Z,101295.53
2022-07-26T14:59:37.251Z,101291.47
2022-07-26T15:02:05.850Z,101295.09
2022-07-26T15:04:32.868Z,101290.91
2022-07-26T15:06:59.796Z,101287.72
2022-07-26T15:09:26.316Z,101285.56
2022-07-26T15:11:53.098Z,101291.72
2022-07-26T15:14:19.673Z,101292.88
2022-07-26T15:16:46.439Z,101291.78
2022-07-26T15:19:13.013Z,101293.00
2022-07-26T15:21:39.664Z,101290.94
2022-07-26T15:24:06.553Z,101292.50
2022-07-26T15:26:33.137Z,101295.44
2022-07-26T15:28:59.717Z,101298.38
2022-07-26T15:31:37.168Z,101293.63
2022-07-26T15:34:07.550Z,101292.78
2022-07-26T15:36:34.579Z,101294.34
2022-07-26T15:39:14.716Z,101288.16
2022-07-26T15:41:43.764Z,101290.53
2022-07-26T15:44:12.255Z,101290.94
2022-07-26T15:46:39.900Z,101288.69
2022-07-26T15:49:07.549Z,101292.97
2022-07-26T15:51:34.389Z,101293.13
2022-07-26T15:54:03.052Z,101298.16
2022-07-26T15:56:29.949Z,101292.09
2022-07-26T15:58:56.610Z,101297.94
2022-07-26T16:01:23.326Z,101309.16
2022-07-26T16:03:50.565Z,101309.88
2022-07-26T16:06:18.223Z,101311.63
2022-07-26T16:09:05.937Z,101314.19
2022-07-26T16:11:31.822Z,101313.44
2022-07-26T16:14:00.922Z,101319.09
2022-07-26T16:16:29.337Z,101315.03
2022-07-26T16:18:56.028Z,101306.94
2022-07-26T16:21:22.561Z,101311.06
2022-07-26T16:23:50.822Z,101307.44
2022-07-26T16:26:17.922Z,101313.44
2022-07-26T16:28:44.533Z,101314.59
2022-07-26T16:31:11.156Z,101311.19
2022-07-26T16:33:37.851Z,101317.94
2022-07-26T16:36:12.442Z,101324.25
2022-07-26T16:38:39.010Z,101329.13
2022-07-26T16:41:07.371Z,101324.72
2022-07-26T16:43:34.596Z,101327.53
2022-07-26T16:46:01.498Z,101325.94
2022-07-26T16:48:28.185Z,101324.66
2022-07-26T16:50:54.829Z,101321.25
2022-07-26T16:53:21.430Z,101324.63
2022-07-26T16:55:49.694Z,101317.38
2022-07-26T16:58:16.575Z,101323.00
2022-07-26T17:00:43.476Z,101321.00
2022-07-26T17:03:10.237Z,101324.00
2022-07-26T17:05:36.829Z,101325.25
2022-07-26T17:08:03.493Z,101326.84
2022-07-26T17:10:30.056Z,101322.06
2022-07-26T17:12:56.618Z,101325.38
2022-07-26T17:15:23.138Z,101316.63
2022-07-26T17:17:49.796Z,101321.53
2022-07-26T17:20:16.936Z,101312.28
2022-07-26T17:22:43.511Z,101310.84
2022-07-26T17:25:10.240Z,101322.91
2022-07-26T17:27:36.963Z,101327.75
2022-07-26T17:30:07.092Z,101320.06
2022-07-26T17:32:34.380Z,101319.13
2022-07-26T17:35:01.057Z,101318.06
2022-07-26T17:37:27.658Z,101319.63
2022-07-26T17:39:55.333Z,101315.38
2022-07-26T17:42:24.289Z,101313.34
2022-07-26T17:44:51.208Z,101314.25
2022-07-26T17:47:29.089Z,101313.16
2022-07-26T17:50:08.925Z,101314.09
2022-07-26T17:52:45.315Z,101326.31
2022-07-26T17:55:12.027Z,101326.44
2022-07-26T17:57:38.589Z,101333.81
2022-07-26T18:00:06.715Z,101335.69
2022-07-26T18:02:33.525Z,101338.34
2022-07-26T18:05:00.269Z,101335.78
2022-07-26T18:07:27.095Z,101331.56
2022-07-26T18:09:53.585Z,101336.31
2022-07-26T18:12:20.372Z,101327.16
2022-07-26T18:14:46.884Z,101342.63
2022-07-26T18:17:13.427Z,101346.97
2022-07-26T18:19:40.006Z,101336.63
2022-07-26T18:22:06.598Z,101335.66
2022-07-26T18:24:33.220Z,101331.56
2022-07-26T18:26:59.760Z,101327.66
2022-07-26T18:29:26.340Z,101324.47
2022-07-26T18:31:52.927Z,101332.13
2022-07-26T18:34:19.522Z,101327.47
2022-07-26T18:36:46.113Z,101323.75
2022-07-26T18:39:13.051Z,101334.84
2022-07-26T18:41:39.809Z,101333.88
2022-07-26T18:44:06.345Z,101333.22
2022-07-26T18:46:33.684Z,101331.16
2022-07-26T18:49:00.614Z,101334.06
2022-07-26T18:51:29.188Z,101338.25
2022-07-26T18:53:58.277Z,101334.56
2022-07-26T18:56:24.913Z,101341.38
2022-07-26T18:58:51.514Z,101339.66
2022-07-26T19:01:18.268Z,101346.59
2022-07-26T19:03:44.910Z,101345.00
2022-07-26T19:06:13.076Z,101337.56
2022-07-26T19:08:39.664Z,101349.34
2022-07-26T19:11:06.333Z,101348.09
2022-07-26T19:13:32.915Z,101346.09
2022-07-26T19:15:59.462Z,101362.06
2022-07-26T19:18:25.984Z,101354.72
2022-07-26T19:20:52.476Z,101354.19
2022-07-26T19:23:19.072Z,101355.78
2022-07-26T19:25:46.387Z,101360.16
2022-07-26T19:28:13.787Z,101356.25
2022-07-26T19:30:40.494Z,101365.59
2022-07-26T19:33:07.268Z,101372.94
2022-07-26T19:35:33.747Z,101376.31
2022-07-26T19:38:00.403Z,101372.06
2022-07-26T19:40:27.031Z,101371.75
2022-07-26T19:42:53.585Z,101382.09
2022-07-26T19:45:20.127Z,101386.59
2022-07-26T19:47:46.735Z,101379.03
2022-07-26T19:50:13.512Z,101385.47
2022-07-26T19:52:40.790Z,101391.25
2022-07-26T19:55:08.189Z,101386.97
2022-07-26T19:57:34.817Z,101394.28
2022-07-26T20:00:03.013Z,101397.09
2022-07-26T20:02:29.772Z,101397.69
2022-07-26T20:04:56.366Z,101393.41
2022-07-26T20:07:22.939Z,101399.06
2022-07-26T20:09:50.589Z,101401.31
2022-07-26T20:12:18.542Z,101402.91
2022-07-26T20:14:45.381Z,101404.47
2022-07-26T20:17:13.262Z,101409.09
2022-07-26T20:19:40.457Z,101404.34
2022-07-26T20:22:07.071Z,101417.75
2022-07-26T20:24:34.433Z,101413.94
2022-07-26T20:27:00.919Z,101409.75
2022-07-26T20:29:27.564Z,101408.97
2022-07-26T20:31:54.095Z,101405.94
2022-07-26T20:34:20.596Z,101409.63
2022-07-26T20:36:47.305Z,101419.44
2022-07-26T20:39:15.055Z,101414.28
2022-07-26T20:41:41.794Z,101424.72
2022-07-26T20:44:08.432Z,101430.81
2022-07-26T20:46:39.994Z,101434.19
2022-07-26T20:49:08.022Z,101435.09
2022-07-26T20:51:34.808Z,101433.16
2022-07-26T20:54:01.418Z,101440.47
2022-07-26T20:56:29.123Z,101440.56
2022-07-26T20:58:55.689Z,101439.09
2022-07-26T21:01:22.470Z,101447.97
2022-07-26T21:03:48.983Z,101450.47
2022-07-26T21:06:15.679Z,101447.75
2022-07-26T21:08:42.201Z,101457.66
2022-07-26T21:11:08.690Z,101459.13
2022-07-26T21:13:35.199Z,101459.66
2022-07-26T21:16:01.801Z,101451.78
2022-07-26T21:18:32.669Z,101460.66
2022-07-26T21:21:01.652Z,101463.25
2022-07-26T21:23:28.212Z,101460.16
2022-07-26T21:25:58.096Z,101460.00
2022-07-26T21:28:27.300Z,101460.53
2022-07-26T21:30:54.143Z,101461.34
2022-07-26T21:33:20.869Z,101467.75
2022-07-26T21:35:47.381Z,101472.22
2022-07-26T21:38:14.077Z,101474.34
2022-07-26T21:40:40.632Z,101478.47
2022-07-26T21:43:07.249Z,101474.75
2022-07-26T21:45:33.876Z,101481.69
2022-07-26T21:48:00.481Z,101482.56
2022-07-26T21:50:27.847Z,101483.34
2022-07-26T21:52:54.329Z,101479.50
2022-07-26T21:55:20.937Z,101488.72
2022-07-26T21:57:47.988Z,101484.34
2022-07-26T22:00:16.275Z,101487.59
2022-07-26T22:02:42.845Z,101494.09
2022-07-26T22:05:28.167Z,101489.25
2022-07-26T22:07:55.140Z,101491.97
2022-07-26T22:10:21.809Z,101488.78
2022-07-26T22:12:48.295Z,101490.66
2022-07-26T22:15:14.837Z,101494.28
2022-07-26T22:17:41.505Z,101496.63
2022-07-26T22:20:09.071Z,101490.78
2022-07-26T22:22:36.686Z,101500.84
2022-07-26T22:25:04.768Z,101504.88
2022-07-26T22:27:31.300Z,101502.63
2022-07-26T22:29:57.801Z,101502.78
2022-07-26T22:32:24.415Z,101500.88
2022-07-26T22:34:50.910Z,101513.72
2022-07-26T22:37:17.488Z,101507.44
2022-07-26T22:39:44.021Z,101498.72
2022-07-26T22:42:15.786Z,101503.91
2022-07-26T22:44:42.893Z,101500.72
2022-07-26T22:47:09.410Z,101502.75
2022-07-26T22:49:36.028Z,101500.81
2022-07-26T22:52:02.662Z,101494.16
2022-07-26T22:54:29.230Z,101503.00
2022-07-26T22:56:55.920Z,101493.00
2022-07-26T22:59:22.794Z,101491.94
2022-07-26T23:01:49.370Z,101508.78
2022-07-26T23:04:16.098Z,101509.66
2022-07-26T23:06:43.002Z,101504.13
2022-07-26T23:09:11.508Z,101508.69
2022-07-26T23:11:38.373Z,101505.88
2022-07-26T23:14:05.083Z,101507.53
2022-07-26T23:16:31.787Z,101502.25
2022-07-26T23:18:58.359Z,101505.94
2022-07-26T23:21:25.320Z,101500.66
2022-07-26T23:23:51.810Z,101502.69
2022-07-26T23:26:18.306Z,101500.03
2022-07-26T23:28:44.791Z,101500.47
2022-07-26T23:31:14.352Z,101508.56
2022-07-26T23:33:53.326Z,101504.63
2022-07-26T23:36:30.105Z,101505.50
2022-07-26T23:38:58.967Z,101502.94
2022-07-26T23:41:26.666Z,101505.47
2022-07-26T23:43:54.434Z,101495.13
2022-07-26T23:46:21.743Z,101493.50
2022-07-26T23:48:48.466Z,101502.78
2022-07-26T23:51:15.367Z,101504.84
2022-07-26T23:53:42.063Z,101503.78
2022-07-26T23:56:08.706Z,101497.94
2022-07-26T23:58:35.292Z,101507.56
